HOURLY OBSERVATIONS


Time
(EST)
Temperature
°F
Dew Point
°F
Humidity
%
Wind
mph
Pressure
mb
Precip.
Hour
in
Precip.
Day
in
6 Hr
Max Temp
°F
6 Hr
Min Temp
°F
20 03:00 61 59 95 Calm 1017.3 0.00
20 02:00 61 59 94 Calm 1017.2 0.00
20 01:00 61 59 93 Calm 1017.6 0.00 68 61
20 00:00 62 60 93 Calm 1017.8 0.43
19 23:00 63 61 92 E 0 G 1 1017.8 0.43
19 22:00 64 61 90 Calm 1018.0 0.43
19 21:00 65 61 88 NE 1 G 4 1018.2 0.43
19 20:00 66 62 85 NNE 0 G 2 1017.8 0.43
19 19:00 68 63 82 N 0 G 5 1017.3 0.43 80 68
19 18:00 71 64 78 NNE 2 G 6 1016.7 0.43
19 17:00 78 66 68 ENE 3 G 8 1016.1 0.43
19 16:00 79 68 69 ENE 1 G 4 1015.7 0.43
19 15:00 77 68 72 W 1 G 5 1015.8 0.43
19 14:00 77 67 72 NNE 2 G 5 1015.8 0.43
19 13:00 75 66 74 NE 2 G 6 1016.3 0.43 75 66
19 12:00 74 66 77 N 1 G 4 1016.5 0.43
19 11:00 72 66 80 E 4 G 7 1016.4 0.43
19 10:00 71 66 83 ENE 2 G 6 1016.7 0.43
19 09:00 69 66 91 NE 2 G 11 1016.4 0.43
19 08:00 66 65 96 NNE 1 G 9 1016.1 0.43
19 07:00 66 65 96 NNE 0 G 2 1015.8 0.43 70 66
19 06:00 66 65 96 Calm 1015.1 0.43
19 05:00 66 64 95 Calm 1014.2 0.43
19 04:00 67 65 94 ESE 1 G 7 1012.9 0.43 0.43
19 03:00 69 66 92 ENE 2 G 7 1013.2 0.00
19 02:00 69 66 90 NE 0 G 1 1012.8 0.00
19 01:00 70 66 88 Calm 1013.1 0.00 76 70
19 00:00 71 67 87 E 3 G 5 1012.9 0.00
18 23:00 71 67 86 NE 3 G 6 1013.1 0.01
18 22:00 71 67 87 Calm 1012.6 0.01
18 21:00 72 67 84 Calm 1012.1 0.01
18 20:00 73 67 82 Calm 1011.8 0.01
18 19:00 76 68 77 Calm 1011.6 0.01 87 76
18 18:00 81 69 69 Calm 1011.5 0.01
18 17:00 86 70 59 SSW 1 G 3 1011.6 0.01
18 16:00 84 71 64 NE 1 G 8 1011.4 0.01
18 15:00 83 71 68 N 1 G 5 1011.5 0.01
18 14:00 83 70 65 W 1 G 8 1011.7 0.01
18 13:00 81 70 70 N 1 G 5 1012.0 0.01 81 65
18 12:00 79 72 80 SW 1 G 4 1012.4 0.01
18 11:00 75 71 88 WSW 2 G 4 1012.5 0.01
18 10:00 70 69 98 WSW 0 G 6 1013.0 0.01
18 09:00 67 67 98 SW 0 G 3 1013.3 0.01
18 08:00 66 65 98 SW 0 G 1 1013.3 0.01
18 07:00 65 65 98 Calm 1013.2 0.01 66 64
18 06:00 65 65 98 Calm 1012.5 0.01
18 05:00 65 64 98 Calm 1012.2 0.01
18 04:00 64 63 97 Calm 1011.7 0.01
18 03:00 65 64 97 Calm 1011.5 0.00
18 02:00 65 65 97 Calm 1011.5 0.00
18 01:00 66 65 97 Calm 1011.9 0.00 69 66
18 00:00 67 65 96 Calm 1011.6 0.24
17 23:00 68 66 96 Calm 1011.5 0.24
17 22:00 68 67 96 Calm 1011.5 0.24
17 21:00 69 68 96 Calm 1011.6 0.24
17 20:00 69 68 96 NNE 0 G 3 1011.1 0.24
17 19:00 69 68 96 Calm 1010.6 0.24 70 69
17 18:00 69 68 96 N 1 G 6 1010.2 0.24
17 17:00 70 69 96 NE 2 G 4 1010.4 0.24
17 16:00 70 69 96 ENE 2 G 6 1010.4 0.24
17 15:00 69 68 96 ENE 1 G 6 1010.6 0.24
17 14:00 69 68 96 E 2 G 5 1011.2 0.02 0.24
17 13:00 69 67 96 NE 3 G 6 1012.1 0.06 0.22 70 68
17 12:00 68 67 95 ENE 1 G 5 1012.9 0.10 0.16
17 11:00 68 67 94 ENE 3 G 7 1013.3 0.05 0.06
17 10:00 69 66 92 E 0 G 4 1013.7 0.01 0.01
17 09:00 70 66 89 SSE 3 G 8 1013.9 0.00
17 08:00 69 66 89 E 1 G 6 1013.9 0.00
17 07:00 69 66 90 E 2 G 4 1014.4 0.00 71 69
17 06:00 69 66 90 E 4 G 7 1014.3 0.00
17 05:00 69 66 90 ESE 1 G 5 1014.6 0.00
17 04:00 69 66 89 ENE 0 G 2 1014.8 0.00